createdAt,value
2023-03-06T00:00:27.222Z,11.73
2023-03-06T00:05:31.804Z,10.67
2023-03-06T00:10:36.516Z,11.80
2023-03-06T00:15:40.996Z,11.83
2023-03-06T00:20:46.050Z,12.30
2023-03-06T00:25:51.142Z,11.73
2023-03-06T00:30:54.396Z,10.87
2023-03-06T00:35:57.807Z,10.90
2023-03-06T00:41:08.619Z,11.80
2023-03-06T00:46:12.375Z,11.30
2023-03-06T00:51:16.766Z,10.13
2023-03-06T00:56:21.563Z,10.03
2023-03-06T01:01:24.970Z,9.20
2023-03-06T01:06:29.391Z,9.77
2023-03-06T01:11:34.196Z,8.70
2023-03-06T01:16:37.503Z,8.70
2023-03-06T01:21:41.688Z,7.97
2023-03-06T01:26:46.312Z,8.03
2023-03-06T01:31:49.597Z,8.27
2023-03-06T01:36:52.880Z,8.50
2023-03-06T01:41:57.566Z,8.30
2023-03-06T01:47:02.531Z,8.30
2023-03-06T01:52:13.068Z,8.10
2023-03-06T01:57:24.953Z,8.70
2023-03-06T02:02:28.529Z,8.57
2023-03-06T02:07:32.836Z,9.70
2023-03-06T02:12:37.979Z,9.70
2023-03-06T02:17:42.378Z,9.93
2023-03-06T02:22:51.542Z,10.00
2023-03-06T02:27:56.158Z,9.63
2023-03-06T02:32:59.894Z,9.50
2023-03-06T02:38:09.230Z,10.60
2023-03-06T02:43:15.647Z,9.77
2023-03-06T02:48:20.332Z,11.37
2023-03-06T02:53:23.858Z,10.57
2023-03-06T02:58:28.607Z,10.10
2023-03-06T03:03:33.222Z,10.47
2023-03-06T03:08:36.875Z,10.63
2023-03-06T03:13:41.650Z,10.77
2023-03-06T03:18:48.130Z,8.23
2023-03-06T03:23:51.765Z,11.50
2023-03-06T03:28:56.586Z,11.03
2023-03-06T03:34:00.114Z,11.17
2023-03-06T03:39:03.621Z,10.93
2023-03-06T03:44:08.334Z,9.80
2023-03-06T03:49:11.728Z,10.27
2023-03-06T03:54:15.390Z,11.20
2023-03-06T03:59:21.014Z,10.50
2023-03-06T04:04:24.344Z,10.90
2023-03-06T04:09:27.881Z,10.57
2023-03-06T04:14:33.674Z,10.60
2023-03-06T04:19:38.443Z,10.70
2023-03-06T04:24:42.960Z,10.83
2023-03-06T04:29:47.627Z,9.63
2023-03-06T04:34:51.104Z,10.50
2023-03-06T04:39:55.169Z,9.43
2023-03-06T04:44:59.781Z,9.93
2023-03-06T04:50:04.033Z,8.80
2023-03-06T04:55:08.887Z,8.40
2023-03-06T05:00:17.639Z,9.53
2023-03-06T05:05:21.012Z,9.73
2023-03-06T05:10:25.128Z,8.77
2023-03-06T05:15:29.924Z,8.87
2023-03-06T05:20:33.853Z,8.33
2023-03-06T05:25:38.963Z,8.10
2023-03-06T05:30:45.851Z,8.50
2023-03-06T05:35:55.297Z,8.23
2023-03-06T05:40:58.618Z,9.27
2023-03-06T05:46:04.874Z,8.87
2023-03-06T05:51:08.165Z,8.83
2023-03-06T05:56:11.465Z,9.37
2023-03-06T06:01:17.725Z,8.50
2023-03-06T06:06:20.922Z,8.87
2023-03-06T06:11:24.227Z,9.30
2023-03-06T06:16:31.116Z,8.57
2023-03-06T06:21:34.411Z,8.37
2023-03-06T06:26:37.710Z,8.17
2023-03-06T06:31:42.619Z,8.03
2023-03-06T06:36:46.032Z,8.60
2023-03-06T06:42:05.537Z,8.70
2023-03-06T06:47:22.821Z,7.47
2023-03-06T06:52:28.009Z,8.00
2023-03-06T06:57:31.285Z,8.60
2023-03-06T07:02:36.906Z,8.40
2023-03-06T07:13:10.001Z,8.33
2023-03-06T07:18:16.125Z,10.10
2023-03-06T07:23:20.185Z,8.03
2023-03-06T07:28:28.184Z,7.83
2023-03-06T07:33:32.775Z,7.67
2023-03-06T07:38:36.029Z,8.10
2023-03-06T07:49:08.817Z,7.67
2023-03-06T07:54:12.609Z,7.37
2023-03-06T07:59:15.766Z,7.57
2023-03-06T08:04:22.076Z,7.77
2023-03-06T08:09:27.609Z,7.00
2023-03-06T08:14:33.134Z,8.03
2023-03-06T08:19:40.102Z,6.77
2023-03-06T08:24:43.593Z,7.60
2023-03-06T08:29:48.688Z,6.90
2023-03-06T08:34:53.469Z,7.82
2023-03-06T08:39:56.761Z,6.75
2023-03-06T08:45:00.031Z,6.57
2023-03-06T08:50:06.209Z,6.50
2023-03-06T08:55:14.798Z,6.32
2023-03-06T09:00:21.263Z,6.45
2023-03-06T09:05:26.021Z,5.57
2023-03-06T09:10:29.570Z,6.05
2023-03-06T09:15:32.917Z,5.70
2023-03-06T09:20:37.602Z,6.57
2023-03-06T09:25:44.565Z,6.27
2023-03-06T09:30:49.067Z,5.97
2023-03-06T09:35:59.199Z,5.20
2023-03-06T09:41:10.070Z,6.10
2023-03-06T09:46:22.805Z,6.23
2023-03-06T09:51:37.091Z,6.03
2023-03-06T09:56:40.784Z,5.90
2023-03-06T10:01:51.923Z,6.32
2023-03-06T10:07:00.864Z,6.38
2023-03-06T10:12:08.646Z,7.35
2023-03-06T10:17:17.776Z,6.30
2023-03-06T10:22:31.454Z,6.15
2023-03-06T10:27:44.330Z,5.68
2023-03-06T10:32:52.477Z,6.07
2023-03-06T10:38:04.894Z,6.00
2023-03-06T10:43:13.234Z,6.18
2023-03-06T10:48:20.988Z,6.72
2023-03-06T10:53:29.213Z,6.47
2023-03-06T10:59:25.726Z,6.13
2023-03-06T11:04:32.913Z,6.60
2023-03-06T11:09:38.638Z,6.38
2023-03-06T11:14:41.966Z,6.85
2023-03-06T11:19:45.421Z,6.13
2023-03-06T11:24:52.438Z,6.35
2023-03-06T11:29:56.855Z,6.30
2023-03-06T11:40:37.558Z,4.55
2023-03-06T11:45:46.956Z,4.65
2023-03-06T11:50:56.091Z,4.82
2023-03-06T11:56:11.053Z,4.00
2023-03-06T12:01:26.946Z,4.75
2023-03-06T12:06:41.365Z,5.03
2023-03-06T12:11:53.344Z,4.35
2023-03-06T12:17:08.842Z,4.90
2023-03-06T12:22:31.224Z,4.63
2023-03-06T12:27:51.918Z,5.50
2023-03-06T12:33:11.081Z,4.20
2023-03-06T12:38:37.385Z,3.95
2023-03-06T12:44:18.485Z,4.10
2023-03-06T12:49:31.890Z,4.47
2023-03-06T12:54:40.100Z,4.38
2023-03-06T12:59:48.958Z,5.03
2023-03-06T13:05:05.122Z,4.43
2023-03-06T13:10:18.045Z,5.15
2023-03-06T13:15:43.095Z,3.95
2023-03-06T13:20:47.332Z,4.70
2023-03-06T13:25:53.089Z,4.53
2023-03-06T13:30:57.919Z,4.75
2023-03-06T13:36:01.814Z,4.10
2023-03-06T13:41:57.308Z,3.97
2023-03-06T13:47:07.106Z,4.63
2023-03-06T13:52:19.575Z,3.80
2023-03-06T13:57:39.485Z,4.53
2023-03-06T14:03:11.800Z,3.90
2023-03-06T14:08:17.264Z,4.10
2023-03-06T14:13:26.651Z,3.55
2023-03-06T14:18:41.261Z,4.20
2023-03-06T14:23:47.354Z,4.18
2023-03-06T14:28:57.194Z,4.15
2023-03-06T14:34:04.988Z,3.65
2023-03-06T14:39:13.964Z,3.33
2023-03-06T14:44:20.059Z,3.55
2023-03-06T14:49:26.105Z,3.42
2023-03-06T14:54:34.962Z,4.13
2023-03-06T14:59:43.566Z,3.67
2023-03-06T15:04:50.932Z,3.95
2023-03-06T15:09:55.619Z,3.67
2023-03-06T15:15:01.743Z,4.32
2023-03-06T15:20:09.562Z,3.95
2023-03-06T15:25:22.457Z,3.92
2023-03-06T15:36:21.409Z,4.10
2023-03-06T15:41:32.901Z,4.30
2023-03-06T15:46:36.259Z,4.20
2023-03-06T15:51:41.799Z,4.95
2023-03-06T15:56:47.091Z,4.38
2023-03-06T16:01:51.410Z,4.13
2023-03-06T16:06:56.119Z,4.33
2023-03-06T16:12:03.707Z,4.90
2023-03-06T16:17:07.269Z,4.00
2023-03-06T16:22:14.484Z,4.93
2023-03-06T16:27:22.588Z,4.10
2023-03-06T16:32:28.592Z,4.80
2023-03-06T16:37:37.539Z,5.10
2023-03-06T16:42:40.912Z,5.37
2023-03-06T16:47:47.668Z,4.50
2023-03-06T16:53:00.237Z,5.43
2023-03-06T16:58:04.191Z,5.47
2023-03-06T17:03:07.901Z,5.27
2023-03-06T17:08:12.856Z,5.60
2023-03-06T17:13:16.192Z,5.60
2023-03-06T17:18:21.292Z,5.23
2023-03-06T17:23:28.908Z,5.20
2023-03-06T17:28:33.795Z,4.70
2023-03-06T17:33:39.207Z,5.53
2023-03-06T17:38:44.443Z,5.13
2023-03-06T17:43:47.740Z,4.60
2023-03-06T17:48:52.263Z,5.23
2023-03-06T17:53:57.519Z,5.13
2023-03-06T17:59:00.993Z,5.10
2023-03-06T18:04:05.197Z,5.90
2023-03-06T18:09:10.245Z,5.30
2023-03-06T18:14:15.538Z,4.80
2023-03-06T18:19:18.848Z,5.03
2023-03-06T18:24:23.543Z,5.50
2023-03-06T18:29:27.087Z,5.67
2023-03-06T18:34:32.954Z,5.37
2023-03-06T18:39:39.191Z,5.77
2023-03-06T18:44:44.109Z,5.50
2023-03-06T18:49:47.437Z,5.50
2023-03-06T18:54:53.573Z,5.00
2023-03-06T18:59:57.664Z,4.47
2023-03-06T19:05:01.075Z,5.93
2023-03-06T19:10:06.482Z,5.00
2023-03-06T19:15:10.570Z,5.40
2023-03-06T19:20:14.054Z,6.23
2023-03-06T19:25:19.168Z,5.50
2023-03-06T19:30:26.626Z,5.80
2023-03-06T19:35:29.924Z,5.93
2023-03-06T19:40:35.825Z,5.73
2023-03-06T19:45:43.169Z,5.77
2023-03-06T19:50:48.187Z,5.63
2023-03-06T19:55:55.131Z,6.17
2023-03-06T20:01:05.146Z,6.83
2023-03-06T20:06:13.245Z,6.40
2023-03-06T20:11:19.537Z,5.93
2023-03-06T20:16:22.990Z,6.23
2023-03-06T20:21:29.368Z,6.83
2023-03-06T20:26:36.888Z,6.33
2023-03-06T20:31:40.899Z,6.93
2023-03-06T20:36:46.857Z,6.17
2023-03-06T20:41:52.253Z,5.80
2023-03-06T20:46:55.749Z,5.53
2023-03-06T20:51:59.148Z,5.27
2023-03-06T20:57:04.002Z,5.70
2023-03-06T21:02:10.311Z,5.43
2023-03-06T21:07:13.992Z,5.73
2023-03-06T21:12:26.819Z,6.00
2023-03-06T21:17:37.473Z,5.83
2023-03-06T21:22:44.434Z,6.87
2023-03-06T21:27:49.343Z,5.53
2023-03-06T21:32:53.925Z,5.93
2023-03-06T21:37:57.303Z,7.13
2023-03-06T21:43:02.145Z,5.90
2023-03-06T21:48:08.632Z,6.07
2023-03-06T21:53:18.903Z,6.03
2023-03-06T21:58:32.657Z,6.53
2023-03-06T22:03:37.040Z,6.57
2023-03-06T22:08:40.746Z,6.67
2023-03-06T22:13:48.452Z,7.20
2023-03-06T22:18:52.674Z,6.50
2023-03-06T22:24:01.094Z,6.30
2023-03-06T22:29:05.929Z,6.63
2023-03-06T22:34:09.460Z,6.57
2023-03-06T22:39:14.183Z,6.53
2023-03-06T22:44:23.273Z,6.07
2023-03-06T22:49:26.641Z,6.03
2023-03-06T22:54:33.178Z,6.40
2023-03-06T22:59:38.943Z,5.90
2023-03-06T23:04:42.863Z,5.37
2023-03-06T23:09:46.273Z,5.50
2023-03-06T23:14:51.365Z,5.90
2023-03-06T23:19:58.903Z,4.87
2023-03-06T23:25:02.534Z,5.53
2023-03-06T23:30:09.605Z,5.90
2023-03-06T23:35:14.951Z,4.90
2023-03-06T23:40:18.575Z,5.50
2023-03-06T23:45:23.906Z,5.10
2023-03-06T23:50:27.306Z,5.23
2023-03-06T23:55:30.617Z,5.60
